createdAt,value
2023-03-25T00:08:01.928Z,3.10
2023-03-25T00:18:06.939Z,0.60
2023-03-25T00:28:12.555Z,7.90
2023-03-25T00:38:16.967Z,4.97
2023-03-25T00:48:20.778Z,7.00
2023-03-25T00:58:25.446Z,4.20
2023-03-25T01:08:29.742Z,4.37
2023-03-25T01:18:38.130Z,7.90
2023-03-25T01:28:41.875Z,3.80
2023-03-25T01:38:48.030Z,6.90
2023-03-25T01:48:51.396Z,3.87
2023-03-25T01:58:56.819Z,3.77
2023-03-25T02:09:01.352Z,2.10
2023-03-25T02:19:24.563Z,4.90
2023-03-25T02:29:39.686Z,4.67
2023-03-25T02:39:48.365Z,5.43
2023-03-25T02:49:57.301Z,5.53
2023-03-25T03:00:02.505Z,1.85
2023-03-25T03:10:19.482Z,4.87
2023-03-25T03:20:36.019Z,2.30
2023-03-25T03:30:47.235Z,5.33
2023-03-25T03:40:57.248Z,5.30
2023-03-25T03:51:08.013Z,3.13
2023-03-25T04:01:16.235Z,3.50
2023-03-25T04:11:24.059Z,2.77
2023-03-25T04:21:30.131Z,4.60
2023-03-25T04:31:34.014Z,3.50
2023-03-25T04:41:39.139Z,4.00
2023-03-25T04:51:45.123Z,4.07
2023-03-25T05:01:50.393Z,4.43
2023-03-25T05:11:56.065Z,1.50
2023-03-25T05:22:02.354Z,4.97
2023-03-25T05:32:05.610Z,3.50
2023-03-25T05:42:10.954Z,3.00
2023-03-25T05:52:14.711Z,9.47
2023-03-25T06:02:19.158Z,2.70
2023-03-25T06:12:27.674Z,4.40
2023-03-25T06:22:34.198Z,5.13
2023-03-25T06:32:37.781Z,7.73
2023-03-25T06:42:42.969Z,8.63
2023-03-25T06:53:12.155Z,5.83
2023-03-25T07:03:16.431Z,1.80
2023-03-25T07:13:19.633Z,7.53
2023-03-25T07:23:24.290Z,5.13
2023-03-25T07:33:28.014Z,6.77
2023-03-25T07:43:33.360Z,1.67
2023-03-25T07:53:55.334Z,1.63
2023-03-25T08:04:09.643Z,1.20
2023-03-25T08:14:12.944Z,0.67
2023-03-25T08:24:17.907Z,1.97
2023-03-25T08:34:22.434Z,1.73
2023-03-25T08:44:33.081Z,4.00
2023-03-25T08:54:36.199Z,4.13
2023-03-25T09:04:41.008Z,3.83
2023-03-25T09:14:45.384Z,3.00
2023-03-25T09:24:49.867Z,4.63
2023-03-25T09:34:52.928Z,8.63
2023-03-25T09:45:12.059Z,12.50
2023-03-25T09:55:21.794Z,5.97
2023-03-25T10:05:40.668Z,10.47
2023-03-25T10:15:52.997Z,14.27
2023-03-25T10:26:03.427Z,18.43
2023-03-25T10:36:12.691Z,6.03
2023-03-25T10:46:25.784Z,7.40
2023-03-25T10:56:32.959Z,5.67
2023-03-25T11:06:40.256Z,5.77
2023-03-25T11:16:46.997Z,4.70
2023-03-25T11:26:52.946Z,4.17
2023-03-25T11:37:01.903Z,5.23
2023-03-25T11:47:10.482Z,5.23
2023-03-25T11:57:17.424Z,7.85
2023-03-25T12:07:22.354Z,6.90
2023-03-25T12:17:38.208Z,3.73
2023-03-25T12:27:56.495Z,6.20
2023-03-25T12:38:32.640Z,5.93
2023-03-25T12:48:57.808Z,6.50
2023-03-25T12:59:17.515Z,6.43
2023-03-25T13:09:27.940Z,6.33
2023-03-25T13:19:36.783Z,7.57
2023-03-25T13:29:45.458Z,9.53
2023-03-25T13:40:14.438Z,4.13
2023-03-25T13:50:26.631Z,7.00
2023-03-25T14:01:04.303Z,7.43
2023-03-25T14:11:23.311Z,6.67
2023-03-25T14:21:33.910Z,5.70
2023-03-25T14:31:38.232Z,7.90
2023-03-25T14:41:58.601Z,8.37
2023-03-25T14:52:03.442Z,12.43
2023-03-25T15:02:16.432Z,4.90
2023-03-25T15:12:25.748Z,10.00
2023-03-25T15:22:29.560Z,6.37
2023-03-25T15:32:49.469Z,6.93
2023-03-25T15:43:22.066Z,9.27
2023-03-25T15:53:43.158Z,9.23
2023-03-25T16:03:47.130Z,8.37
2023-03-25T16:14:06.795Z,15.23
2023-03-25T16:24:14.154Z,8.70
2023-03-25T16:34:18.654Z,4.70
2023-03-25T16:44:24.366Z,7.73
2023-03-25T16:54:38.018Z,5.23
2023-03-25T17:04:43.216Z,7.03
2023-03-25T17:14:51.461Z,8.27
2023-03-25T17:25:00.191Z,8.83
2023-03-25T17:35:06.967Z,7.20
2023-03-25T17:45:16.165Z,10.17
2023-03-25T17:55:21.001Z,5.63
2023-03-25T18:05:23.980Z,15.30
2023-03-25T18:15:28.766Z,15.07
2023-03-25T18:25:34.131Z,15.60
2023-03-25T18:36:04.775Z,11.73
2023-03-25T18:46:08.244Z,11.07
2023-03-25T18:56:12.706Z,10.07
2023-03-25T19:06:15.975Z,6.00
2023-03-25T19:16:21.145Z,8.03
2023-03-25T19:26:24.635Z,8.53
2023-03-25T19:36:29.216Z,9.87
2023-03-25T19:46:33.824Z,14.97
2023-03-25T19:56:38.461Z,11.43
2023-03-25T20:06:42.176Z,13.27
2023-03-25T20:16:46.509Z,13.30
2023-03-25T20:26:49.630Z,17.40
2023-03-25T20:36:54.584Z,11.47
2023-03-25T20:46:57.793Z,11.47
2023-03-25T20:57:02.366Z,12.97
2023-03-25T21:07:05.566Z,10.03
2023-03-25T21:17:10.455Z,11.03
2023-03-25T21:27:17.727Z,20.40
2023-03-25T21:37:22.191Z,13.03
2023-03-25T21:47:25.513Z,16.90
2023-03-25T21:57:30.755Z,12.03
2023-03-25T22:07:33.998Z,16.20
2023-03-25T22:17:38.725Z,16.27
2023-03-25T22:27:42.379Z,16.27
2023-03-25T22:37:47.084Z,24.50
2023-03-25T22:47:51.109Z,15.13
2023-03-25T22:57:55.588Z,15.40
2023-03-25T23:07:58.667Z,15.37
2023-03-25T23:18:03.604Z,16.60
2023-03-25T23:28:06.750Z,17.03
2023-03-25T23:38:11.278Z,19.60
2023-03-25T23:48:14.569Z,15.27
2023-03-25T23:58:19.731Z,17.57
